sensor_id;sensor_type;location;lat;lon;timestamp;P1;durP1;ratioP1;P2;durP2;ratioP2
15177;SDS011;7689;53.612;-2.416;2022-07-12T00:02:23;2.75;;;2.55;;
15177;SDS011;7689;53.612;-2.416;2022-07-12T00:04:49;3.10;;;2.60;;
15177;SDS011;7689;53.612;-2.416;2022-07-12T00:07:14;2.90;;;2.75;;
15177;SDS011;7689;53.612;-2.416;2022-07-12T00:09:41;4.88;;;2.75;;
15177;SDS011;7689;53.612;-2.416;2022-07-12T00:12:07;2.70;;;2.50;;
15177;SDS011;7689;53.612;-2.416;2022-07-12T00:14:33;4.70;;;3.03;;
15177;SDS011;7689;53.612;-2.416;2022-07-12T00:16:58;3.97;;;2.47;;
15177;SDS011;7689;53.612;-2.416;2022-07-12T00:19:25;2.85;;;2.65;;
15177;SDS011;7689;53.612;-2.416;2022-07-12T00:21:50;2.80;;;2.60;;
15177;SDS011;7689;53.612;-2.416;2022-07-12T00:24:16;2.47;;;2.30;;
15177;SDS011;7689;53.612;-2.416;2022-07-12T00:26:42;3.70;;;2.60;;
15177;SDS011;7689;53.612;-2.416;2022-07-12T00:29:08;3.78;;;2.70;;
15177;SDS011;7689;53.612;-2.416;2022-07-12T00:31:33;2.60;;;2.50;;
15177;SDS011;7689;53.612;-2.416;2022-07-12T00:34:00;3.78;;;2.45;;
15177;SDS011;7689;53.612;-2.416;2022-07-12T00:36:25;2.80;;;2.60;;
15177;SDS011;7689;53.612;-2.416;2022-07-12T00:38:51;2.65;;;2.55;;
15177;SDS011;7689;53.612;-2.416;2022-07-12T00:41:17;2.85;;;2.65;;
15177;SDS011;7689;53.612;-2.416;2022-07-12T00:43:42;2.70;;;2.50;;
15177;SDS011;7689;53.612;-2.416;2022-07-12T00:46:08;2.70;;;2.50;;
15177;SDS011;7689;53.612;-2.416;2022-07-12T00:48:35;4.65;;;2.70;;
15177;SDS011;7689;53.612;-2.416;2022-07-12T00:51:01;2.55;;;2.45;;
15177;SDS011;7689;53.612;-2.416;2022-07-12T00:53:27;3.08;;;2.88;;
15177;SDS011;7689;53.612;-2.416;2022-07-12T00:55:54;2.55;;;2.42;;
15177;SDS011;7689;53.612;-2.416;2022-07-12T00:58:20;2.97;;;2.78;;
15177;SDS011;7689;53.612;-2.416;2022-07-12T01:00:48;3.10;;;2.90;;
15177;SDS011;7689;53.612;-2.416;2022-07-12T01:03:13;3.08;;;2.88;;
15177;SDS011;7689;53.612;-2.416;2022-07-12T01:05:39;2.65;;;2.55;;
15177;SDS011;7689;53.612;-2.416;2022-07-12T01:08:05;2.97;;;2.75;;
15177;SDS011;7689;53.612;-2.416;2022-07-12T01:10:32;3.15;;;2.90;;
15177;SDS011;7689;53.612;-2.416;2022-07-12T01:12:58;3.08;;;2.58;;
15177;SDS011;7689;53.612;-2.416;2022-07-12T01:15:25;2.95;;;2.83;;
15177;SDS011;7689;53.612;-2.416;2022-07-12T01:17:54;2.63;;;2.53;;
15177;SDS011;7689;53.612;-2.416;2022-07-12T01:20:21;3.15;;;2.72;;
15177;SDS011;7689;53.612;-2.416;2022-07-12T01:22:51;3.28;;;3.08;;
15177;SDS011;7689;53.612;-2.416;2022-07-12T01:25:19;2.70;;;2.50;;
15177;SDS011;7689;53.612;-2.416;2022-07-12T01:27:44;3.63;;;2.90;;
15177;SDS011;7689;53.612;-2.416;2022-07-12T01:30:10;2.95;;;2.75;;
15177;SDS011;7689;53.612;-2.416;2022-07-12T01:32:36;2.75;;;2.55;;
15177;SDS011;7689;53.612;-2.416;2022-07-12T01:35:03;4.68;;;2.78;;
15177;SDS011;7689;53.612;-2.416;2022-07-12T01:37:32;2.75;;;2.63;;
15177;SDS011;7689;53.612;-2.416;2022-07-12T01:40:00;4.13;;;2.70;;
15177;SDS011;7689;53.612;-2.416;2022-07-12T01:42:28;3.28;;;2.60;;
15177;SDS011;7689;53.612;-2.416;2022-07-12T01:44:54;2.83;;;2.63;;
15177;SDS011;7689;53.612;-2.416;2022-07-12T01:47:22;2.85;;;2.75;;
15177;SDS011;7689;53.612;-2.416;2022-07-12T01:49:49;2.50;;;2.40;;
15177;SDS011;7689;53.612;-2.416;2022-07-12T01:52:15;3.00;;;2.80;;
15177;SDS011;7689;53.612;-2.416;2022-07-12T01:54:42;3.20;;;3.00;;
15177;SDS011;7689;53.612;-2.416;2022-07-12T01:57:08;3.35;;;3.10;;
15177;SDS011;7689;53.612;-2.416;2022-07-12T01:59:34;3.42;;;3.20;;
15177;SDS011;7689;53.612;-2.416;2022-07-12T02:02:01;3.20;;;3.00;;
15177;SDS011;7689;53.612;-2.416;2022-07-12T02:04:27;3.70;;;3.28;;
15177;SDS011;7689;53.612;-2.416;2022-07-12T02:06:53;3.25;;;3.05;;
15177;SDS011;7689;53.612;-2.416;2022-07-12T02:09:20;3.00;;;2.80;;
15177;SDS011;7689;53.612;-2.416;2022-07-12T02:11:46;3.47;;;3.28;;
15177;SDS011;7689;53.612;-2.416;2022-07-12T02:14:15;3.45;;;3.20;;
15177;SDS011;7689;53.612;-2.416;2022-07-12T02:16:41;4.95;;;3.53;;
15177;SDS011;7689;53.612;-2.416;2022-07-12T02:19:08;3.63;;;3.15;;
15177;SDS011;7689;53.612;-2.416;2022-07-12T02:21:35;3.03;;;2.83;;
15177;SDS011;7689;53.612;-2.416;2022-07-12T02:24:01;3.95;;;2.75;;
15177;SDS011;7689;53.612;-2.416;2022-07-12T02:26:27;3.17;;;2.97;;
15177;SDS011;7689;53.612;-2.416;2022-07-12T02:28:53;3.38;;;3.05;;
15177;SDS011;7689;53.612;-2.416;2022-07-12T02:31:18;3.47;;;3.25;;
15177;SDS011;7689;53.612;-2.416;2022-07-12T02:33:44;3.40;;;3.15;;
15177;SDS011;7689;53.612;-2.416;2022-07-12T02:36:10;4.10;;;3.70;;
15177;SDS011;7689;53.612;-2.416;2022-07-12T02:38:36;3.60;;;3.40;;
15177;SDS011;7689;53.612;-2.416;2022-07-12T02:41:01;3.92;;;3.10;;
15177;SDS011;7689;53.612;-2.416;2022-07-12T02:43:28;4.03;;;3.63;;
15177;SDS011;7689;53.612;-2.416;2022-07-12T02:45:55;3.60;;;3.30;;
15177;SDS011;7689;53.612;-2.416;2022-07-12T02:48:34;5.30;;;3.35;;
15177;SDS011;7689;53.612;-2.416;2022-07-12T02:51:00;3.70;;;3.40;;
15177;SDS011;7689;53.612;-2.416;2022-07-12T02:53:26;3.88;;;3.58;;
15177;SDS011;7689;53.612;-2.416;2022-07-12T02:55:52;3.75;;;3.45;;
15177;SDS011;7689;53.612;-2.416;2022-07-12T02:58:18;6.03;;;3.80;;
15177;SDS011;7689;53.612;-2.416;2022-07-12T03:00:43;5.80;;;3.85;;
15177;SDS011;7689;53.612;-2.416;2022-07-12T03:03:12;6.32;;;4.28;;
15177;SDS011;7689;53.612;-2.416;2022-07-12T03:05:39;3.95;;;3.58;;
15177;SDS011;7689;53.612;-2.416;2022-07-12T03:08:06;8.27;;;4.32;;
15177;SDS011;7689;53.612;-2.416;2022-07-12T03:10:32;3.90;;;3.60;;
15177;SDS011;7689;53.612;-2.416;2022-07-12T03:12:59;6.78;;;4.22;;
15177;SDS011;7689;53.612;-2.416;2022-07-12T03:15:24;4.65;;;3.83;;
15177;SDS011;7689;53.612;-2.416;2022-07-12T03:17:50;5.97;;;4.25;;
15177;SDS011;7689;53.612;-2.416;2022-07-12T03:20:16;3.45;;;3.22;;
15177;SDS011;7689;53.612;-2.416;2022-07-12T03:22:42;3.83;;;3.42;;
15177;SDS011;7689;53.612;-2.416;2022-07-12T03:25:13;4.35;;;3.95;;
15177;SDS011;7689;53.612;-2.416;2022-07-12T03:27:39;4.03;;;3.72;;
15177;SDS011;7689;53.612;-2.416;2022-07-12T03:30:05;4.30;;;3.92;;
15177;SDS011;7689;53.612;-2.416;2022-07-12T03:32:32;4.63;;;3.88;;
15177;SDS011;7689;53.612;-2.416;2022-07-12T03:34:58;6.07;;;3.58;;
15177;SDS011;7689;53.612;-2.416;2022-07-12T03:37:23;3.78;;;3.47;;
15177;SDS011;7689;53.612;-2.416;2022-07-12T03:39:49;5.88;;;4.20;;
15177;SDS011;7689;53.612;-2.416;2022-07-12T03:42:14;3.78;;;3.47;;
15177;SDS011;7689;53.612;-2.416;2022-07-12T03:44:40;5.18;;;3.97;;
15177;SDS011;7689;53.612;-2.416;2022-07-12T03:47:06;3.88;;;3.67;;
15177;SDS011;7689;53.612;-2.416;2022-07-12T03:49:32;4.28;;;3.97;;
15177;SDS011;7689;53.612;-2.416;2022-07-12T03:51:57;5.68;;;3.70;;
15177;SDS011;7689;53.612;-2.416;2022-07-12T03:54:23;3.95;;;3.65;;
15177;SDS011;7689;53.612;-2.416;2022-07-12T03:56:48;6.00;;;3.83;;
15177;SDS011;7689;53.612;-2.416;2022-07-12T03:59:33;4.30;;;3.90;;
15177;SDS011;7689;53.612;-2.416;2022-07-12T04:01:59;4.40;;;4.10;;
15177;SDS011;7689;53.612;-2.416;2022-07-12T04:04:26;4.88;;;4.07;;
15177;SDS011;7689;53.612;-2.416;2022-07-12T04:06:52;4.30;;;3.90;;
15177;SDS011;7689;53.612;-2.416;2022-07-12T04:09:18;5.47;;;4.38;;
15177;SDS011;7689;53.612;-2.416;2022-07-12T04:11:44;4.82;;;3.75;;
15177;SDS011;7689;53.612;-2.416;2022-07-12T04:14:09;5.18;;;3.40;;
15177;SDS011;7689;53.612;-2.416;2022-07-12T04:16:35;4.25;;;3.85;;
15177;SDS011;7689;53.612;-2.416;2022-07-12T04:19:00;3.90;;;3.60;;
15177;SDS011;7689;53.612;-2.416;2022-07-12T04:21:26;4.28;;;3.97;;
15177;SDS011;7689;53.612;-2.416;2022-07-12T04:23:52;5.45;;;3.95;;
15177;SDS011;7689;53.612;-2.416;2022-07-12T04:26:17;4.53;;;4.15;;
15177;SDS011;7689;53.612;-2.416;2022-07-12T04:28:43;4.53;;;3.92;;
15177;SDS011;7689;53.612;-2.416;2022-07-12T04:31:08;4.47;;;4.10;;
15177;SDS011;7689;53.612;-2.416;2022-07-12T04:33:34;4.40;;;4.03;;
15177;SDS011;7689;53.612;-2.416;2022-07-12T04:36:00;5.53;;;3.80;;
15177;SDS011;7689;53.612;-2.416;2022-07-12T04:38:26;5.85;;;4.18;;
15177;SDS011;7689;53.612;-2.416;2022-07-12T04:40:52;4.88;;;4.00;;
15177;SDS011;7689;53.612;-2.416;2022-07-12T04:43:17;4.88;;;3.90;;
15177;SDS011;7689;53.612;-2.416;2022-07-12T04:45:43;4.05;;;3.75;;
15177;SDS011;7689;53.612;-2.416;2022-07-12T04:48:09;4.38;;;4.07;;
15177;SDS011;7689;53.612;-2.416;2022-07-12T04:50:35;5.47;;;3.85;;
15177;SDS011;7689;53.612;-2.416;2022-07-12T04:53:01;4.25;;;3.88;;
15177;SDS011;7689;53.612;-2.416;2022-07-12T04:55:27;4.00;;;3.60;;
15177;SDS011;7689;53.612;-2.416;2022-07-12T04:57:53;5.80;;;3.63;;
15177;SDS011;7689;53.612;-2.416;2022-07-12T05:00:19;5.78;;;3.70;;
15177;SDS011;7689;53.612;-2.416;2022-07-12T05:02:44;4.20;;;3.80;;
15177;SDS011;7689;53.612;-2.416;2022-07-12T05:05:11;4.93;;;3.90;;
15177;SDS011;7689;53.612;-2.416;2022-07-12T05:07:36;7.20;;;3.90;;
15177;SDS011;7689;53.612;-2.416;2022-07-12T05:10:02;4.10;;;3.80;;
15177;SDS011;7689;53.612;-2.416;2022-07-12T05:12:28;3.65;;;3.45;;
15177;SDS011;7689;53.612;-2.416;2022-07-12T05:14:54;4.43;;;3.97;;
15177;SDS011;7689;53.612;-2.416;2022-07-12T05:17:19;4.43;;;3.65;;
15177;SDS011;7689;53.612;-2.416;2022-07-12T05:19:45;4.43;;;3.67;;
15177;SDS011;7689;53.612;-2.416;2022-07-12T05:22:11;4.60;;;3.80;;
15177;SDS011;7689;53.612;-2.416;2022-07-12T05:24:37;3.70;;;3.47;;
15177;SDS011;7689;53.612;-2.416;2022-07-12T05:27:02;3.88;;;3.58;;
15177;SDS011;7689;53.612;-2.416;2022-07-12T05:29:29;4.00;;;3.70;;
15177;SDS011;7689;53.612;-2.416;2022-07-12T05:31:55;4.13;;;3.83;;
15177;SDS011;7689;53.612;-2.416;2022-07-12T05:34:21;5.63;;;3.75;;
15177;SDS011;7689;53.612;-2.416;2022-07-12T05:36:47;5.57;;;3.85;;
15177;SDS011;7689;53.612;-2.416;2022-07-12T05:39:12;3.88;;;3.65;;
15177;SDS011;7689;53.612;-2.416;2022-07-12T05:41:38;3.65;;;3.35;;
15177;SDS011;7689;53.612;-2.416;2022-07-12T05:44:04;4.13;;;3.75;;
15177;SDS011;7689;53.612;-2.416;2022-07-12T05:46:30;4.55;;;3.38;;
15177;SDS011;7689;53.612;-2.416;2022-07-12T05:48:55;4.50;;;3.72;;
15177;SDS011;7689;53.612;-2.416;2022-07-12T05:51:21;5.95;;;3.95;;
15177;SDS011;7689;53.612;-2.416;2022-07-12T05:54:05;4.03;;;3.63;;
15177;SDS011;7689;53.612;-2.416;2022-07-12T05:56:31;5.13;;;3.40;;
15177;SDS011;7689;53.612;-2.416;2022-07-12T05:58:57;4.20;;;3.80;;
15177;SDS011;7689;53.612;-2.416;2022-07-12T06:01:23;7.03;;;3.90;;
15177;SDS011;7689;53.612;-2.416;2022-07-12T06:03:48;4.32;;;3.92;;
15177;SDS011;7689;53.612;-2.416;2022-07-12T06:06:14;4.93;;;3.45;;
15177;SDS011;7689;53.612;-2.416;2022-07-12T06:08:39;4.90;;;3.67;;
15177;SDS011;7689;53.612;-2.416;2022-07-12T06:11:05;3.58;;;3.28;;
15177;SDS011;7689;53.612;-2.416;2022-07-12T06:13:31;3.95;;;3.38;;
15177;SDS011;7689;53.612;-2.416;2022-07-12T06:15:57;4.35;;;3.65;;
15177;SDS011;7689;53.612;-2.416;2022-07-12T06:18:24;4.60;;;3.58;;
15177;SDS011;7689;53.612;-2.416;2022-07-12T06:20:50;5.00;;;3.60;;
15177;SDS011;7689;53.612;-2.416;2022-07-12T06:23:16;4.30;;;3.50;;
15177;SDS011;7689;53.612;-2.416;2022-07-12T06:25:42;4.68;;;3.75;;
15177;SDS011;7689;53.612;-2.416;2022-07-12T06:28:07;6.63;;;3.58;;
15177;SDS011;7689;53.612;-2.416;2022-07-12T06:30:33;5.20;;;3.50;;
15177;SDS011;7689;53.612;-2.416;2022-07-12T06:32:59;6.72;;;3.83;;
15177;SDS011;7689;53.612;-2.416;2022-07-12T06:35:24;5.82;;;3.95;;
15177;SDS011;7689;53.612;-2.416;2022-07-12T06:37:50;3.33;;;3.03;;
15177;SDS011;7689;53.612;-2.416;2022-07-12T06:40:16;3.78;;;3.47;;
15177;SDS011;7689;53.612;-2.416;2022-07-12T06:42:42;6.57;;;3.40;;
15177;SDS011;7689;53.612;-2.416;2022-07-12T06:45:08;3.72;;;3.38;;
15177;SDS011;7689;53.612;-2.416;2022-07-12T06:47:35;4.20;;;3.70;;
15177;SDS011;7689;53.612;-2.416;2022-07-12T06:50:00;7.90;;;3.33;;
15177;SDS011;7689;53.612;-2.416;2022-07-12T06:52:27;4.00;;;3.50;;
15177;SDS011;7689;53.612;-2.416;2022-07-12T06:54:53;4.18;;;3.10;;
15177;SDS011;7689;53.612;-2.416;2022-07-12T06:57:18;6.57;;;3.40;;
15177;SDS011;7689;53.612;-2.416;2022-07-12T06:59:44;4.28;;;3.58;;
15177;SDS011;7689;53.612;-2.416;2022-07-12T07:02:10;4.57;;;3.50;;
15177;SDS011;7689;53.612;-2.416;2022-07-12T07:04:36;7.32;;;3.38;;
15177;SDS011;7689;53.612;-2.416;2022-07-12T07:07:01;8.20;;;3.10;;
15177;SDS011;7689;53.612;-2.416;2022-07-12T07:09:27;3.63;;;3.30;;
15177;SDS011;7689;53.612;-2.416;2022-07-12T07:11:53;6.45;;;3.10;;
15177;SDS011;7689;53.612;-2.416;2022-07-12T07:14:19;5.03;;;3.60;;
15177;SDS011;7689;53.612;-2.416;2022-07-12T07:16:44;10.68;;;4.10;;
15177;SDS011;7689;53.612;-2.416;2022-07-12T07:19:10;5.45;;;3.35;;
15177;SDS011;7689;53.612;-2.416;2022-07-12T07:21:36;3.67;;;3.00;;
15177;SDS011;7689;53.612;-2.416;2022-07-12T07:24:02;3.03;;;2.80;;
15177;SDS011;7689;53.612;-2.416;2022-07-12T07:26:29;2.97;;;2.78;;
15177;SDS011;7689;53.612;-2.416;2022-07-12T07:28:55;3.08;;;2.75;;
15177;SDS011;7689;53.612;-2.416;2022-07-12T07:31:39;3.60;;;2.70;;
15177;SDS011;7689;53.612;-2.416;2022-07-12T07:34:05;2.72;;;2.50;;
15177;SDS011;7689;53.612;-2.416;2022-07-12T07:36:31;3.25;;;2.95;;
15177;SDS011;7689;53.612;-2.416;2022-07-12T07:38:57;3.85;;;2.70;;
15177;SDS011;7689;53.612;-2.416;2022-07-12T07:41:23;3.13;;;2.83;;
15177;SDS011;7689;53.612;-2.416;2022-07-12T07:43:49;3.40;;;3.08;;
15177;SDS011;7689;53.612;-2.416;2022-07-12T07:46:15;4.80;;;3.22;;
15177;SDS011;7689;53.612;-2.416;2022-07-12T07:48:40;6.63;;;3.05;;
15177;SDS011;7689;53.612;-2.416;2022-07-12T07:51:06;3.85;;;3.20;;
15177;SDS011;7689;53.612;-2.416;2022-07-12T07:53:31;3.83;;;2.80;;
15177;SDS011;7689;53.612;-2.416;2022-07-12T07:55:57;4.72;;;2.78;;
15177;SDS011;7689;53.612;-2.416;2022-07-12T07:58:23;25.30;;;4.47;;
15177;SDS011;7689;53.612;-2.416;2022-07-12T08:00:49;4.97;;;3.13;;
15177;SDS011;7689;53.612;-2.416;2022-07-12T08:03:15;4.10;;;2.60;;
15177;SDS011;7689;53.612;-2.416;2022-07-12T08:05:41;2.90;;;2.70;;
15177;SDS011;7689;53.612;-2.416;2022-07-12T08:08:07;3.45;;;2.70;;
15177;SDS011;7689;53.612;-2.416;2022-07-12T08:10:33;3.00;;;2.70;;
15177;SDS011;7689;53.612;-2.416;2022-07-12T08:12:59;4.53;;;2.72;;
15177;SDS011;7689;53.612;-2.416;2022-07-12T08:15:25;3.47;;;2.67;;
15177;SDS011;7689;53.612;-2.416;2022-07-12T08:17:51;6.53;;;2.95;;
15177;SDS011;7689;53.612;-2.416;2022-07-12T08:20:17;3.35;;;3.03;;
15177;SDS011;7689;53.612;-2.416;2022-07-12T08:22:44;2.85;;;2.67;;
15177;SDS011;7689;53.612;-2.416;2022-07-12T08:25:10;4.72;;;2.90;;
15177;SDS011;7689;53.612;-2.416;2022-07-12T08:27:36;3.40;;;2.97;;
15177;SDS011;7689;53.612;-2.416;2022-07-12T08:30:02;14.52;;;3.90;;
15177;SDS011;7689;53.612;-2.416;2022-07-12T08:32:28;4.03;;;2.92;;
15177;SDS011;7689;53.612;-2.416;2022-07-12T08:34:53;6.78;;;3.00;;
15177;SDS011;7689;53.612;-2.416;2022-07-12T08:37:19;4.57;;;2.95;;
15177;SDS011;7689;53.612;-2.416;2022-07-12T08:39:45;3.20;;;3.00;;
15177;SDS011;7689;53.612;-2.416;2022-07-12T08:42:12;5.25;;;3.17;;
15177;SDS011;7689;53.612;-2.416;2022-07-12T08:44:40;7.40;;;3.20;;
15177;SDS011;7689;53.612;-2.416;2022-07-12T08:47:09;3.47;;;2.67;;
15177;SDS011;7689;53.612;-2.416;2022-07-12T08:49:35;3.08;;;2.78;;
15177;SDS011;7689;53.612;-2.416;2022-07-12T08:52:23;4.25;;;2.80;;
15177;SDS011;7689;53.612;-2.416;2022-07-12T08:54:51;3.03;;;2.78;;
15177;SDS011;7689;53.612;-2.416;2022-07-12T08:57:29;3.00;;;2.78;;
15177;SDS011;7689;53.612;-2.416;2022-07-12T08:59:58;4.28;;;2.42;;
15177;SDS011;7689;53.612;-2.416;2022-07-12T09:02:25;3.40;;;2.63;;
15177;SDS011;7689;53.612;-2.416;2022-07-12T09:05:07;4.18;;;2.78;;
15177;SDS011;7689;53.612;-2.416;2022-07-12T09:07:36;3.35;;;3.05;;
15177;SDS011;7689;53.612;-2.416;2022-07-12T09:10:05;3.05;;;2.80;;
15177;SDS011;7689;53.612;-2.416;2022-07-12T09:12:33;3.67;;;2.90;;
15177;SDS011;7689;53.612;-2.416;2022-07-12T09:15:12;3.70;;;2.70;;
15177;SDS011;7689;53.612;-2.416;2022-07-12T09:17:59;5.78;;;2.90;;
15177;SDS011;7689;53.612;-2.416;2022-07-12T09:20:38;4.82;;;2.75;;
15177;SDS011;7689;53.612;-2.416;2022-07-12T09:23:05;7.93;;;2.70;;
15177;SDS011;7689;53.612;-2.416;2022-07-12T09:25:32;5.80;;;2.40;;
15177;SDS011;7689;53.612;-2.416;2022-07-12T09:27:59;3.42;;;2.80;;
15177;SDS011;7689;53.612;-2.416;2022-07-12T09:30:29;4.75;;;2.47;;
15177;SDS011;7689;53.612;-2.416;2022-07-12T09:33:05;5.82;;;2.55;;
15177;SDS011;7689;53.612;-2.416;2022-07-12T09:38:34;2.72;;;2.10;;
15177;SDS011;7689;53.612;-2.416;2022-07-12T09:41:01;4.72;;;2.63;;
15177;SDS011;7689;53.612;-2.416;2022-07-12T09:43:28;4.85;;;2.30;;
15177;SDS011;7689;53.612;-2.416;2022-07-12T09:45:55;2.95;;;2.20;;
15177;SDS011;7689;53.612;-2.416;2022-07-12T09:48:21;3.15;;;2.00;;
15177;SDS011;7689;53.612;-2.416;2022-07-12T09:50:48;4.03;;;2.20;;
15177;SDS011;7689;53.612;-2.416;2022-07-12T09:53:22;2.25;;;1.98;;
15177;SDS011;7689;53.612;-2.416;2022-07-12T09:55:59;2.92;;;2.00;;
15177;SDS011;7689;53.612;-2.416;2022-07-12T09:58:39;2.47;;;2.28;;
15177;SDS011;7689;53.612;-2.416;2022-07-12T10:01:25;2.58;;;2.10;;
15177;SDS011;7689;53.612;-2.416;2022-07-12T10:03:51;3.92;;;1.95;;
15177;SDS011;7689;53.612;-2.416;2022-07-12T10:06:29;2.20;;;2.10;;
15177;SDS011;7689;53.612;-2.416;2022-07-12T10:08:55;2.28;;;2.15;;
15177;SDS011;7689;53.612;-2.416;2022-07-12T10:11:25;2.50;;;2.40;;
15177;SDS011;7689;53.612;-2.416;2022-07-12T10:13:52;4.25;;;2.10;;
15177;SDS011;7689;53.612;-2.416;2022-07-12T10:16:28;3.30;;;2.20;;
15177;SDS011;7689;53.612;-2.416;2022-07-12T10:21:49;2.55;;;2.30;;
15177;SDS011;7689;53.612;-2.416;2022-07-12T10:29:41;2.95;;;2.40;;
15177;SDS011;7689;53.612;-2.416;2022-07-12T10:32:21;2.42;;;2.22;;
15177;SDS011;7689;53.612;-2.416;2022-07-12T10:38:14;2.55;;;2.35;;
15177;SDS011;7689;53.612;-2.416;2022-07-12T10:40:42;2.00;;;1.90;;
15177;SDS011;7689;53.612;-2.416;2022-07-12T10:43:12;2.20;;;2.00;;
15177;SDS011;7689;53.612;-2.416;2022-07-12T10:45:39;3.33;;;2.17;;
15177;SDS011;7689;53.612;-2.416;2022-07-12T10:48:07;2.42;;;2.20;;
15177;SDS011;7689;53.612;-2.416;2022-07-12T10:56:19;2.78;;;2.08;;
15177;SDS011;7689;53.612;-2.416;2022-07-12T11:01:12;3.28;;;2.80;;
15177;SDS011;7689;53.612;-2.416;2022-07-12T11:03:49;3.75;;;2.90;;
15177;SDS011;7689;53.612;-2.416;2022-07-12T11:06:17;2.70;;;2.50;;
15177;SDS011;7689;53.612;-2.416;2022-07-12T11:11:30;2.60;;;2.40;;
15177;SDS011;7689;53.612;-2.416;2022-07-12T11:14:04;3.42;;;2.53;;
15177;SDS011;7689;53.612;-2.416;2022-07-12T11:16:30;3.45;;;2.35;;
15177;SDS011;7689;53.612;-2.416;2022-07-12T11:18:56;2.28;;;2.10;;
15177;SDS011;7689;53.612;-2.416;2022-07-12T11:21:22;2.72;;;2.22;;
15177;SDS011;7689;53.612;-2.416;2022-07-12T11:23:49;2.55;;;2.20;;
15177;SDS011;7689;53.612;-2.416;2022-07-12T11:26:15;2.35;;;2.25;;
15177;SDS011;7689;53.612;-2.416;2022-07-12T11:28:41;2.70;;;2.38;;
15177;SDS011;7689;53.612;-2.416;2022-07-12T11:31:09;2.45;;;2.25;;
15177;SDS011;7689;53.612;-2.416;2022-07-12T11:33:37;2.42;;;2.05;;
15177;SDS011;7689;53.612;-2.416;2022-07-12T11:36:08;3.42;;;2.30;;
15177;SDS011;7689;53.612;-2.416;2022-07-12T11:38:35;3.70;;;2.10;;
15177;SDS011;7689;53.612;-2.416;2022-07-12T11:41:04;2.20;;;2.10;;
15177;SDS011;7689;53.612;-2.416;2022-07-12T11:43:31;4.85;;;2.55;;
15177;SDS011;7689;53.612;-2.416;2022-07-12T11:45:57;2.22;;;2.00;;
15177;SDS011;7689;53.612;-2.416;2022-07-12T11:48:24;3.85;;;2.53;;
15177;SDS011;7689;53.612;-2.416;2022-07-12T11:50:53;2.67;;;2.40;;
15177;SDS011;7689;53.612;-2.416;2022-07-12T11:53:25;2.60;;;2.38;;
15177;SDS011;7689;53.612;-2.416;2022-07-12T11:55:53;2.88;;;2.58;;
15177;SDS011;7689;53.612;-2.416;2022-07-12T11:58:21;4.13;;;2.72;;
15177;SDS011;7689;53.612;-2.416;2022-07-12T12:00:47;2.50;;;2.30;;
15177;SDS011;7689;53.612;-2.416;2022-07-12T12:03:15;2.70;;;2.42;;
15177;SDS011;7689;53.612;-2.416;2022-07-12T12:05:42;2.90;;;2.63;;
15177;SDS011;7689;53.612;-2.416;2022-07-12T12:08:09;2.75;;;2.55;;
15177;SDS011;7689;53.612;-2.416;2022-07-12T12:10:36;2.88;;;2.40;;
15177;SDS011;7689;53.612;-2.416;2022-07-12T12:13:02;2.80;;;2.58;;
15177;SDS011;7689;53.612;-2.416;2022-07-12T12:15:29;4.40;;;2.67;;
15177;SDS011;7689;53.612;-2.416;2022-07-12T12:18:02;2.45;;;2.33;;
15177;SDS011;7689;53.612;-2.416;2022-07-12T12:20:30;2.33;;;2.20;;
15177;SDS011;7689;53.612;-2.416;2022-07-12T12:22:57;3.10;;;2.60;;
15177;SDS011;7689;53.612;-2.416;2022-07-12T12:25:24;3.00;;;2.70;;
15177;SDS011;7689;53.612;-2.416;2022-07-12T12:30:20;2.97;;;2.78;;
15177;SDS011;7689;53.612;-2.416;2022-07-12T12:32:47;2.85;;;2.28;;
15177;SDS011;7689;53.612;-2.416;2022-07-12T12:35:15;3.05;;;2.58;;
15177;SDS011;7689;53.612;-2.416;2022-07-12T12:38:15;3.63;;;2.40;;
15177;SDS011;7689;53.612;-2.416;2022-07-12T12:40:37;2.38;;;2.15;;
15177;SDS011;7689;53.612;-2.416;2022-07-12T12:43:07;2.55;;;2.35;;
15177;SDS011;7689;53.612;-2.416;2022-07-12T12:45:54;2.80;;;2.53;;
15177;SDS011;7689;53.612;-2.416;2022-07-12T12:48:22;3.25;;;2.67;;
15177;SDS011;7689;53.612;-2.416;2022-07-12T12:50:50;3.75;;;2.40;;
15177;SDS011;7689;53.612;-2.416;2022-07-12T12:53:17;3.45;;;2.95;;
15177;SDS011;7689;53.612;-2.416;2022-07-12T12:55:47;6.60;;;2.60;;
15177;SDS011;7689;53.612;-2.416;2022-07-12T12:58:15;3.85;;;2.33;;
15177;SDS011;7689;53.612;-2.416;2022-07-12T13:00:42;4.00;;;2.50;;
15177;SDS011;7689;53.612;-2.416;2022-07-12T13:03:10;3.83;;;2.65;;
15177;SDS011;7689;53.612;-2.416;2022-07-12T13:05:38;5.38;;;2.55;;
15177;SDS011;7689;53.612;-2.416;2022-07-12T13:08:04;3.45;;;2.40;;
15177;SDS011;7689;53.612;-2.416;2022-07-12T13:10:32;2.90;;;2.65;;
15177;SDS011;7689;53.612;-2.416;2022-07-12T13:12:58;6.93;;;2.42;;
15177;SDS011;7689;53.612;-2.416;2022-07-12T13:15:25;5.95;;;2.42;;
15177;SDS011;7689;53.612;-2.416;2022-07-12T13:17:52;2.70;;;2.30;;
15177;SDS011;7689;53.612;-2.416;2022-07-12T13:20:17;2.45;;;2.20;;
15177;SDS011;7689;53.612;-2.416;2022-07-12T13:22:43;5.97;;;2.15;;
15177;SDS011;7689;53.612;-2.416;2022-07-12T13:25:11;5.15;;;2.58;;
15177;SDS011;7689;53.612;-2.416;2022-07-12T13:27:38;2.28;;;2.05;;
15177;SDS011;7689;53.612;-2.416;2022-07-12T13:30:05;4.07;;;2.05;;
15177;SDS011;7689;53.612;-2.416;2022-07-12T13:32:32;2.40;;;2.20;;
15177;SDS011;7689;53.612;-2.416;2022-07-12T13:34:59;5.88;;;2.53;;
15177;SDS011;7689;53.612;-2.416;2022-07-12T13:37:25;2.85;;;2.28;;
15177;SDS011;7689;53.612;-2.416;2022-07-12T13:39:51;2.78;;;2.58;;
15177;SDS011;7689;53.612;-2.416;2022-07-12T13:42:50;3.90;;;2.55;;
15177;SDS011;7689;53.612;-2.416;2022-07-12T13:45:18;2.58;;;2.40;;
15177;SDS011;7689;53.612;-2.416;2022-07-12T13:47:45;2.03;;;1.92;;
15177;SDS011;7689;53.612;-2.416;2022-07-12T13:50:12;2.40;;;2.20;;
15177;SDS011;7689;53.612;-2.416;2022-07-12T13:52:39;4.10;;;2.35;;
15177;SDS011;7689;53.612;-2.416;2022-07-12T13:55:06;6.32;;;2.85;;
15177;SDS011;7689;53.612;-2.416;2022-07-12T13:57:36;4.10;;;2.92;;
15177;SDS011;7689;53.612;-2.416;2022-07-12T14:00:06;3.00;;;2.80;;
15177;SDS011;7689;53.612;-2.416;2022-07-12T14:02:35;2.70;;;2.50;;
15177;SDS011;7689;53.612;-2.416;2022-07-12T14:05:04;3.28;;;2.53;;
15177;SDS011;7689;53.612;-2.416;2022-07-12T14:07:31;2.20;;;2.10;;
15177;SDS011;7689;53.612;-2.416;2022-07-12T14:09:57;2.97;;;2.13;;
15177;SDS011;7689;53.612;-2.416;2022-07-12T14:12:25;2.45;;;2.25;;
15177;SDS011;7689;53.612;-2.416;2022-07-12T14:14:51;2.65;;;1.85;;
15177;SDS011;7689;53.612;-2.416;2022-07-12T14:17:36;3.13;;;1.90;;
15177;SDS011;7689;53.612;-2.416;2022-07-12T14:20:02;2.20;;;2.00;;
15177;SDS011;7689;53.612;-2.416;2022-07-12T14:22:29;1.92;;;1.83;;
15177;SDS011;7689;53.612;-2.416;2022-07-12T14:24:55;2.00;;;1.90;;
15177;SDS011;7689;53.612;-2.416;2022-07-12T14:27:21;1.95;;;1.88;;
15177;SDS011;7689;53.612;-2.416;2022-07-12T14:29:46;3.60;;;2.03;;
15177;SDS011;7689;53.612;-2.416;2022-07-12T14:32:12;2.20;;;2.10;;
15177;SDS011;7689;53.612;-2.416;2022-07-12T14:34:38;2.60;;;1.80;;
15177;SDS011;7689;53.612;-2.416;2022-07-12T14:37:04;2.30;;;2.10;;
15177;SDS011;7689;53.612;-2.416;2022-07-12T14:39:29;2.55;;;1.88;;
15177;SDS011;7689;53.612;-2.416;2022-07-12T14:41:55;3.53;;;2.08;;
15177;SDS011;7689;53.612;-2.416;2022-07-12T14:44:21;1.88;;;1.77;;
15177;SDS011;7689;53.612;-2.416;2022-07-12T14:46:47;4.20;;;2.00;;
15177;SDS011;7689;53.612;-2.416;2022-07-12T14:49:12;1.98;;;1.88;;
15177;SDS011;7689;53.612;-2.416;2022-07-12T14:51:38;2.38;;;2.10;;
15177;SDS011;7689;53.612;-2.416;2022-07-12T14:54:04;2.42;;;1.95;;
15177;SDS011;7689;53.612;-2.416;2022-07-12T14:56:29;2.75;;;1.80;;
15177;SDS011;7689;53.612;-2.416;2022-07-12T14:58:55;2.40;;;2.00;;
15177;SDS011;7689;53.612;-2.416;2022-07-12T15:01:21;2.55;;;1.85;;
15177;SDS011;7689;53.612;-2.416;2022-07-12T15:03:46;1.92;;;1.85;;
15177;SDS011;7689;53.612;-2.416;2022-07-12T15:06:12;1.95;;;1.60;;
15177;SDS011;7689;53.612;-2.416;2022-07-12T15:08:38;1.88;;;1.77;;
15177;SDS011;7689;53.612;-2.416;2022-07-12T15:11:03;2.00;;;1.90;;
15177;SDS011;7689;53.612;-2.416;2022-07-12T15:13:29;1.90;;;1.80;;
15177;SDS011;7689;53.612;-2.416;2022-07-12T15:15:55;1.85;;;1.75;;
15177;SDS011;7689;53.612;-2.416;2022-07-12T15:18:22;1.90;;;1.80;;